Brandon Bordelon — WDI431 — position and weather

sailwx.info

Track history (hours):
 
Tides and Currents Weather Stations Pressure Air Temp Water Temp Dewpoint Dewpoint Depression Visibility Wind Speed Wind Dir Waves Ship Positions

Brandon Bordelon

Last reported at 2017-Sep-19 11:29 UTC. Time now 2017-Sep-19 11:51 UTC.
Position N 29°33' W 090°42'.

Length 87 m; draft 4.5 m.

MMSI: 367697440.

Date/timePositionNaut miles runAvg speedWind from/ knotsBaromVisibWave heightAir tempDewpointWater temp
2017-Sep-19 11:29N 29°33' W 090°42'0 0.0
2017-Sep-19 10:59N 29°33' W 090°42'0 0.0
2017-Sep-19 10:29N 29°33' W 090°42'0 0.0
2017-Sep-19 09:59N 29°33' W 090°42'0 0.0
2017-Sep-19 09:29N 29°33' W 090°42'0 0.0
2017-Sep-19 08:59N 29°33' W 090°42'0 0.0
2017-Sep-19 08:29N 29°33' W 090°42'0 0.0
2017-Sep-19 07:59N 29°33' W 090°42'0 0.0
2017-Sep-19 07:29N 29°33' W 090°42'0 0.0
2017-Sep-19 06:59N 29°33' W 090°42'0 0.0
2017-Sep-19 06:29N 29°33' W 090°42'0 0.0
2017-Sep-19 05:59N 29°33' W 090°42'0 0.0
2017-Sep-19 05:29N 29°33' W 090°42'0 0.0
2017-Sep-19 04:59N 29°33' W 090°42'0 0.0
2017-Sep-19 04:29N 29°33' W 090°42'0 0.0
2017-Sep-19 03:59N 29°33' W 090°42'0 0.0
2017-Sep-19 03:29N 29°33' W 090°42'0 0.0
2017-Sep-19 02:59N 29°33' W 090°42'0 0.0
2017-Sep-19 02:29N 29°33' W 090°42'0 0.0
2017-Sep-19 01:59N 29°33' W 090°42'0 0.0
2017-Sep-19 01:29N 29°33' W 090°42'0 0.0
2017-Sep-19 00:59N 29°33' W 090°42'0 0.0
2017-Sep-19 00:29N 29°33' W 090°42'0 0.0
2017-Sep-18 23:59N 29°33' W 090°42'0 0.0
2017-Sep-18 23:29N 29°33' W 090°42'0 0.0
2017-Sep-18 22:59N 29°33' W 090°42'0 0.0
2017-Sep-18 22:29N 29°33' W 090°42'0 0.0
2017-Sep-18 21:59N 29°33' W 090°42'0 0.0
2017-Sep-18 21:29N 29°33' W 090°42'0 0.0
2017-Sep-18 20:59N 29°33' W 090°42'0 0.0
2017-Sep-18 20:29N 29°33' W 090°42'0 0.0
2017-Sep-18 19:59N 29°33' W 090°42'0 0.0
2017-Sep-18 19:29N 29°33' W 090°42'0 0.0
2017-Sep-18 18:59N 29°33' W 090°42'0 0.0
2017-Sep-18 18:29N 29°33' W 090°42'0 0.0
2017-Sep-18 17:59N 29°33' W 090°42'0 0.0
2017-Sep-18 17:29N 29°33' W 090°42'0 0.0
2017-Sep-18 16:59N 29°33' W 090°42'0 0.0
2017-Sep-18 16:29N 29°33' W 090°42'0 0.0
2017-Sep-18 15:59N 29°33' W 090°42'0 0.0
2017-Sep-18 15:29N 29°33' W 090°42'0 0.0
2017-Sep-18 14:59N 29°33' W 090°42'0 0.0
2017-Sep-18 14:29N 29°33' W 090°42'0 0.0
2017-Sep-18 13:59N 29°33' W 090°42'0 0.0
2017-Sep-18 13:29N 29°33' W 090°42'0 0.0
2017-Sep-18 12:59N 29°33' W 090°42'0 0.0
2017-Sep-18 12:29N 29°33' W 090°42'0 0.0
2017-Sep-18 11:59N 29°33' W 090°42'0 0.0
2017-Sep-18 11:29N 29°33' W 090°42'0 0.0
2017-Sep-18 10:59N 29°33' W 090°42'0 0.0
2017-Sep-18 10:30N 29°33' W 090°42'0 0.0
2017-Sep-18 09:58N 29°33' W 090°42'0 0.0
2017-Sep-18 09:28N 29°33' W 090°42'0 0.0
2017-Sep-18 08:58N 29°33' W 090°42'0 0.0
2017-Sep-18 08:28N 29°33' W 090°42'0 0.0
2017-Sep-18 07:58N 29°33' W 090°42'0 0.0
2017-Sep-18 07:28N 29°33' W 090°42'0 0.0
2017-Sep-18 06:58N 29°33' W 090°42'0 0.0
2017-Sep-18 06:28N 29°33' W 090°42'0 0.0
2017-Sep-18 05:58N 29°33' W 090°42'0 0.0
2017-Sep-18 05:28N 29°33' W 090°42'0 0.0
2017-Sep-18 05:01N 29°33' W 090°42'0 0.0
2017-Sep-18 04:30N 29°33' W 090°42'0 0.0
2017-Sep-18 04:01N 29°33' W 090°42'0 0.0
2017-Sep-18 03:30N 29°33' W 090°42'0 0.0
2017-Sep-18 03:00N 29°33' W 090°42'0 0.0
2017-Sep-18 02:30N 29°33' W 090°42'0 0.0
2017-Sep-18 02:01N 29°33' W 090°42'0 0.0
2017-Sep-18 01:31N 29°33' W 090°42'0 0.1
2017-Sep-18 01:01N 29°33' W 090°42'2 4.4
2017-Sep-18 00:30N 29°31' W 090°43'  
2017-Sep-13 10:32N 29°11' W 090°37'0 3.6
2017-Sep-13 10:30N 29°11' W 090°37'4 3.7
2017-Sep-13 09:25N 29°14' W 090°40'3 4.7
2017-Sep-13 08:42N 29°17' W 090°42'1 4.7
2017-Sep-13 08:30N 29°18' W 090°43'2 4.7
2017-Sep-13 08:00N 29°20' W 090°44'2 4.5
2017-Sep-13 07:30N 29°22' W 090°44'2 3.8
2017-Sep-13 06:59N 29°24' W 090°44'2 4.9
2017-Sep-13 06:29N 29°27' W 090°43'2 4.9
2017-Sep-13 06:00N 29°29' W 090°43'2 5.0
2017-Sep-13 05:30N 29°31' W 090°42'1 2.5
2017-Sep-13 04:58N 29°33' W 090°42'0 0.0
2017-Sep-13 04:28N 29°33' W 090°42'0 0.0
2017-Sep-13 03:58N 29°33' W 090°42'0 0.0
2017-Sep-13 03:28N 29°33' W 090°42'0 0.0
2017-Sep-13 02:58N 29°33' W 090°42'0 0.0
2017-Sep-13 02:28N 29°33' W 090°42'0 0.0
2017-Sep-13 01:58N 29°33' W 090°42'0 0.0
2017-Sep-13 01:28N 29°33' W 090°42'0 0.0
2017-Sep-13 00:58N 29°33' W 090°42'0 0.0
2017-Sep-13 00:28N 29°33' W 090°42'0 0.0
2017-Sep-12 23:58N 29°33' W 090°42'0 0.0
2017-Sep-12 23:28N 29°33' W 090°42'0 0.0
2017-Sep-12 22:58N 29°33' W 090°42'0 0.0
2017-Sep-12 22:28N 29°33' W 090°42'0 0.0
2017-Sep-12 21:58N 29°33' W 090°42'0 0.0
2017-Sep-12 21:28N 29°33' W 090°42'0 0.0
2017-Sep-12 20:58N 29°33' W 090°42'0 0.0
2017-Sep-12 20:04N 29°33' W 090°42'0 0.1
2017-Sep-12 19:58N 29°33' W 090°42'0 0.0
2017-Sep-12 19:28N 29°33' W 090°42'0 0.0
2017-Sep-12 18:58N 29°33' W 090°42'0 0.0
2017-Sep-12 18:28N 29°33' W 090°42'0 0.0
2017-Sep-12 17:58N 29°33' W 090°42'0 0.0
2017-Sep-12 17:28N 29°33' W 090°42'0 0.0
2017-Sep-12 16:58N 29°33' W 090°42'0 0.0
2017-Sep-12 16:28N 29°33' W 090°42'0 0.0
2017-Sep-12 15:58N 29°33' W 090°42'0 0.0
2017-Sep-12 15:25N 29°33' W 090°42'0 0.0
2017-Sep-12 14:58N 29°33' W 090°42'0 0.0
2017-Sep-12 14:28N 29°33' W 090°42'0 0.0
2017-Sep-12 13:58N 29°33' W 090°42'0 0.0
2017-Sep-12 13:28N 29°33' W 090°42'0 0.0
2017-Sep-12 12:58N 29°33' W 090°42'0 0.0
2017-Sep-12 09:13N 29°33' W 090°42'0 0.0
2017-Sep-12 08:58N 29°33' W 090°42'0 0.0
2017-Sep-12 08:28N 29°33' W 090°42'0 0.0
2017-Sep-12 07:58N 29°33' W 090°42'0 0.0
2017-Sep-12 07:28N 29°33' W 090°42'0 0.0
2017-Sep-12 06:58N 29°33' W 090°42'0 0.0
2017-Sep-12 06:28N 29°33' W 090°42'0 0.0
2017-Sep-12 05:58N 29°33' W 090°42'0 0.0
2017-Sep-12 05:28N 29°33' W 090°42'0 0.0
2017-Sep-12 04:58N 29°33' W 090°42'0 0.0
2017-Sep-12 04:28N 29°33' W 090°42'0 0.0
2017-Sep-12 03:58N 29°33' W 090°42'0 0.0
2017-Sep-12 03:28N 29°33' W 090°42'0 0.0
2017-Sep-12 02:58N 29°33' W 090°42'0 0.0
2017-Sep-12 02:28N 29°33' W 090°42'0 0.0
2017-Sep-12 01:58N 29°33' W 090°42'0 0.0
2017-Sep-12 01:28N 29°33' W 090°42'0 0.0
2017-Sep-12 01:01N 29°33' W 090°42'0 0.0
2017-Sep-12 00:28N 29°33' W 090°42'0 0.0
2017-Sep-11 23:58N 29°33' W 090°42'0 0.0
2017-Sep-11 23:31N 29°33' W 090°42'0 0.0
2017-Sep-11 23:01N 29°33' W 090°42'0 0.0
2017-Sep-11 22:31N 29°33' W 090°42'0 0.0
2017-Sep-11 22:01N 29°33' W 090°42'0 0.0
2017-Sep-11 21:31N 29°33' W 090°42'0 0.0
2017-Sep-11 21:01N 29°33' W 090°42'0 0.0
2017-Sep-11 20:31N 29°33' W 090°42'0 0.0
2017-Sep-11 20:00N 29°33' W 090°42'0 0.1
2017-Sep-11 19:31N 29°33' W 090°42'0 0.1
2017-Sep-11 19:00N 29°33' W 090°42'0 0.0
2017-Sep-11 18:27N 29°33' W 090°42'0 0.0
2017-Sep-11 18:00N 29°33' W 090°42'0 0.0
2017-Sep-11 17:27N 29°33' W 090°42'0 0.0
2017-Sep-11 16:54N 29°33' W 090°42'0 0.0
2017-Sep-11 16:30N 29°33' W 090°42'0 0.0
2017-Sep-11 15:57N 29°33' W 090°42'0 0.0
2017-Sep-11 15:30N 29°33' W 090°42'0 0.0
2017-Sep-11 15:00N 29°33' W 090°42'0 0.0
2017-Sep-11 14:30N 29°33' W 090°42'0 0.0
2017-Sep-11 14:00N 29°33' W 090°42'0 0.1
2017-Sep-11 13:24N 29°33' W 090°42'0 0.1
2017-Sep-11 13:00N 29°33' W 090°42'0 0.0
2017-Sep-11 12:30N 29°33' W 090°42'0 0.0
2017-Sep-11 12:00N 29°33' W 090°42'0 0.0
2017-Sep-11 11:30N 29°33' W 090°42'0 0.0
2017-Sep-11 11:00N 29°33' W 090°42'0 0.0
2017-Sep-11 10:30N 29°33' W 090°42'0 0.0
2017-Sep-11 10:00N 29°33' W 090°42'0 0.0
2017-Sep-11 09:30N 29°33' W 090°42'0 0.0
2017-Sep-11 09:00N 29°33' W 090°42'0 0.0
2017-Sep-11 08:30N 29°33' W 090°42'0 0.0
2017-Sep-11 08:00N 29°33' W 090°42'0 0.0
2017-Sep-11 07:30N 29°33' W 090°42'0 0.0
2017-Sep-11 07:00N 29°33' W 090°42'0 0.0
2017-Sep-11 06:30N 29°33' W 090°42'0 0.0
2017-Sep-11 06:00N 29°33' W 090°42'0 0.0
2017-Sep-11 05:30N 29°33' W 090°42'0 0.0
2017-Sep-11 05:00N 29°33' W 090°42'0 0.0
2017-Sep-11 04:30N 29°33' W 090°42'0 0.0
2017-Sep-11 04:00N 29°33' W 090°42'0 0.0
2017-Sep-11 03:30N 29°33' W 090°42'0 0.0
2017-Sep-11 03:00N 29°33' W 090°42'0 0.0
2017-Sep-11 02:30N 29°33' W 090°42'0 0.0
2017-Sep-11 02:00N 29°33' W 090°42'0 0.0
2017-Sep-11 01:30N 29°33' W 090°42'0 0.0
2017-Sep-11 01:00N 29°33' W 090°42'0 0.0
2017-Sep-11 00:30N 29°33' W 090°42'0 0.0
2017-Sep-11 00:00N 29°33' W 090°42'0 0.0
2017-Sep-10 23:30N 29°33' W 090°42'0 0.0
2017-Sep-10 23:00N 29°33' W 090°42'0 0.0
2017-Sep-10 22:30N 29°33' W 090°42'0 0.0
2017-Sep-10 22:00N 29°33' W 090°42'0 0.0
2017-Sep-10 21:30N 29°33' W 090°42'0 0.0
2017-Sep-10 21:00N 29°33' W 090°42'0 0.0
2017-Sep-10 20:30N 29°33' W 090°42'0 0.0
2017-Sep-10 20:00N 29°33' W 090°42'0 0.0
2017-Sep-10 19:30N 29°33' W 090°42'0 0.0
2017-Sep-10 19:00N 29°33' W 090°42'0 0.0
2017-Sep-10 18:30N 29°33' W 090°42'0 0.0
2017-Sep-10 18:00N 29°33' W 090°42'0 0.0
2017-Sep-10 17:30N 29°33' W 090°42'0 0.0
2017-Sep-10 17:00N 29°33' W 090°42'0 0.0
2017-Sep-10 16:30N 29°33' W 090°42'0 0.0
2017-Sep-10 16:00N 29°33' W 090°42'0 0.0
2017-Sep-10 15:30N 29°33' W 090°42'0 0.0
2017-Sep-10 15:00N 29°33' W 090°42'0 0.0
2017-Sep-10 14:00N 29°33' W 090°42'0 0.0
2017-Sep-10 13:30N 29°33' W 090°42'0 0.0
2017-Sep-10 13:00N 29°33' W 090°42'0 0.0
2017-Sep-10 12:30N 29°33' W 090°42'0 0.0
2017-Sep-10 12:00N 29°33' W 090°42'0 0.0
2017-Sep-10 11:30N 29°33' W 090°42'0 0.0
2017-Sep-10 11:00N 29°33' W 090°42'0 0.0
2017-Sep-10 10:30N 29°33' W 090°42'0 0.0
2017-Sep-10 10:00N 29°33' W 090°42'0 0.0
2017-Sep-10 09:30N 29°33' W 090°42'0 0.0
2017-Sep-10 09:00N 29°33' W 090°42'0 0.0
2017-Sep-10 08:30N 29°33' W 090°42'0 0.0
2017-Sep-10 08:00N 29°33' W 090°42'0 0.0
2017-Sep-10 07:30N 29°33' W 090°42'0 0.0
2017-Sep-10 07:00N 29°33' W 090°42'0 0.0
2017-Sep-10 06:30N 29°33' W 090°42'0 0.0
2017-Sep-10 06:00N 29°33' W 090°42'0 0.0
2017-Sep-10 05:30N 29°33' W 090°42'0 0.0
2017-Sep-10 05:00N 29°33' W 090°42'0 0.0
2017-Sep-10 04:30N 29°33' W 090°42'0 0.0
2017-Sep-10 04:00N 29°33' W 090°42'0 0.0
2017-Sep-10 03:30N 29°33' W 090°42'0 0.0
2017-Sep-10 03:00N 29°33' W 090°42'0 0.0
2017-Sep-10 02:30N 29°33' W 090°42'0 0.0
2017-Sep-10 02:00N 29°33' W 090°42'0 0.0
2017-Sep-10 01:30N 29°33' W 090°42'0 0.0
2017-Sep-10 00:57N 29°33' W 090°42'0 0.0
2017-Sep-10 00:30N 29°33' W 090°42'0 0.0
2017-Sep-10 00:00N 29°33' W 090°42'0 0.0
2017-Sep-09 23:30N 29°33' W 090°42'0 0.0
2017-Sep-09 23:00N 29°33' W 090°42'0 0.0
2017-Sep-09 22:30N 29°33' W 090°42'0 0.0
2017-Sep-09 22:00N 29°33' W 090°42'0 0.0
2017-Sep-09 21:30N 29°33' W 090°42'0 0.0
2017-Sep-09 20:57N 29°33' W 090°42'0 0.0
2017-Sep-09 20:27N 29°33' W 090°42'0 0.0
2017-Sep-09 20:00N 29°33' W 090°42'0 0.0
2017-Sep-09 19:30N 29°33' W 090°42'0 0.0
2017-Sep-09 19:00N 29°33' W 090°42'0 0.0
2017-Sep-09 18:30N 29°33' W 090°42'0 0.0
2017-Sep-09 18:00N 29°33' W 090°42'0 0.0
2017-Sep-09 17:30N 29°33' W 090°42'0 0.0
2017-Sep-09 17:00N 29°33' W 090°42'0 0.0
2017-Sep-09 16:30N 29°33' W 090°42'0 0.0
2017-Sep-09 16:00N 29°33' W 090°42'0 0.0
2017-Sep-09 15:30N 29°33' W 090°42'0 0.0
2017-Sep-09 15:00N 29°33' W 090°42'0 0.0
2017-Sep-09 14:30N 29°33' W 090°42'0 0.0
2017-Sep-09 14:00N 29°33' W 090°42'0 0.0
2017-Sep-09 13:30N 29°33' W 090°42'0 0.0
2017-Sep-09 13:00N 29°33' W 090°42'0 0.0
2017-Sep-09 12:30N 29°33' W 090°42'0 0.0
2017-Sep-09 12:00N 29°33' W 090°42'0 0.0
2017-Sep-09 11:30N 29°33' W 090°42'  
Track history (hours):
 
Tides and Currents Weather Stations Pressure Air Temp Water Temp Dewpoint Dewpoint Depression Visibility Wind Speed Wind Dir Waves Ship Positions

Brandon Bordelon

Last reported at 2017-Sep-19 11:29 UTC. Time now 2017-Sep-19 11:51 UTC.
Position N 29°33' W 090°42'.

Length 87 m; draft 4.5 m.

MMSI: 367697440.

Date/timePositionNaut miles runAvg speedWind from/ knotsBaromVisibWave heightAir tempDewpointWater temp
2017-Sep-19 11:29N 29°33' W 090°42'0 0.0
2017-Sep-19 10:59N 29°33' W 090°42'0 0.0
2017-Sep-19 10:29N 29°33' W 090°42'0 0.0
2017-Sep-19 09:59N 29°33' W 090°42'0 0.0
2017-Sep-19 09:29N 29°33' W 090°42'0 0.0
2017-Sep-19 08:59N 29°33' W 090°42'0 0.0
2017-Sep-19 08:29N 29°33' W 090°42'0 0.0
2017-Sep-19 07:59N 29°33' W 090°42'0 0.0
2017-Sep-19 07:29N 29°33' W 090°42'0 0.0
2017-Sep-19 06:59N 29°33' W 090°42'0 0.0
2017-Sep-19 06:29N 29°33' W 090°42'0 0.0
2017-Sep-19 05:59N 29°33' W 090°42'0 0.0
2017-Sep-19 05:29N 29°33' W 090°42'0 0.0
2017-Sep-19 04:59N 29°33' W 090°42'0 0.0
2017-Sep-19 04:29N 29°33' W 090°42'0 0.0
2017-Sep-19 03:59N 29°33' W 090°42'0 0.0
2017-Sep-19 03:29N 29°33' W 090°42'0 0.0
2017-Sep-19 02:59N 29°33' W 090°42'0 0.0
2017-Sep-19 02:29N 29°33' W 090°42'0 0.0
2017-Sep-19 01:59N 29°33' W 090°42'0 0.0
2017-Sep-19 01:29N 29°33' W 090°42'0 0.0
2017-Sep-19 00:59N 29°33' W 090°42'0 0.0
2017-Sep-19 00:29N 29°33' W 090°42'0 0.0
2017-Sep-18 23:59N 29°33' W 090°42'0 0.0
2017-Sep-18 23:29N 29°33' W 090°42'0 0.0
2017-Sep-18 22:59N 29°33' W 090°42'0 0.0
2017-Sep-18 22:29N 29°33' W 090°42'0 0.0
2017-Sep-18 21:59N 29°33' W 090°42'0 0.0
2017-Sep-18 21:29N 29°33' W 090°42'0 0.0
2017-Sep-18 20:59N 29°33' W 090°42'0 0.0
2017-Sep-18 20:29N 29°33' W 090°42'0 0.0
2017-Sep-18 19:59N 29°33' W 090°42'0 0.0
2017-Sep-18 19:29N 29°33' W 090°42'0 0.0
2017-Sep-18 18:59N 29°33' W 090°42'0 0.0
2017-Sep-18 18:29N 29°33' W 090°42'0 0.0
2017-Sep-18 17:59N 29°33' W 090°42'0 0.0
2017-Sep-18 17:29N 29°33' W 090°42'0 0.0
2017-Sep-18 16:59N 29°33' W 090°42'0 0.0
2017-Sep-18 16:29N 29°33' W 090°42'0 0.0
2017-Sep-18 15:59N 29°33' W 090°42'0 0.0
2017-Sep-18 15:29N 29°33' W 090°42'0 0.0
2017-Sep-18 14:59N 29°33' W 090°42'0 0.0
2017-Sep-18 14:29N 29°33' W 090°42'0 0.0
2017-Sep-18 13:59N 29°33' W 090°42'0 0.0
2017-Sep-18 13:29N 29°33' W 090°42'0 0.0
2017-Sep-18 12:59N 29°33' W 090°42'0 0.0
2017-Sep-18 12:29N 29°33' W 090°42'0 0.0
2017-Sep-18 11:59N 29°33' W 090°42'0 0.0
2017-Sep-18 11:29N 29°33' W 090°42'0 0.0
2017-Sep-18 10:59N 29°33' W 090°42'0 0.0
2017-Sep-18 10:30N 29°33' W 090°42'0 0.0
2017-Sep-18 09:58N 29°33' W 090°42'0 0.0
2017-Sep-18 09:28N 29°33' W 090°42'0 0.0
2017-Sep-18 08:58N 29°33' W 090°42'0 0.0
2017-Sep-18 08:28N 29°33' W 090°42'0 0.0
2017-Sep-18 07:58N 29°33' W 090°42'0 0.0
2017-Sep-18 07:28N 29°33' W 090°42'0 0.0
2017-Sep-18 06:58N 29°33' W 090°42'0 0.0
2017-Sep-18 06:28N 29°33' W 090°42'0 0.0
2017-Sep-18 05:58N 29°33' W 090°42'0 0.0
2017-Sep-18 05:28N 29°33' W 090°42'0 0.0
2017-Sep-18 05:01N 29°33' W 090°42'0 0.0
2017-Sep-18 04:30N 29°33' W 090°42'0 0.0
2017-Sep-18 04:01N 29°33' W 090°42'0 0.0
2017-Sep-18 03:30N 29°33' W 090°42'0 0.0
2017-Sep-18 03:00N 29°33' W 090°42'0 0.0
2017-Sep-18 02:30N 29°33' W 090°42'0 0.0
2017-Sep-18 02:01N 29°33' W 090°42'0 0.0
2017-Sep-18 01:31N 29°33' W 090°42'0 0.1
2017-Sep-18 01:01N 29°33' W 090°42'2 4.4
2017-Sep-18 00:30N 29°31' W 090°43'  
2017-Sep-13 10:32N 29°11' W 090°37'0 3.6
2017-Sep-13 10:30N 29°11' W 090°37'4 3.7
2017-Sep-13 09:25N 29°14' W 090°40'3 4.7
2017-Sep-13 08:42N 29°17' W 090°42'1 4.7
2017-Sep-13 08:30N 29°18' W 090°43'2 4.7
2017-Sep-13 08:00N 29°20' W 090°44'2 4.5
2017-Sep-13 07:30N 29°22' W 090°44'2 3.8
2017-Sep-13 06:59N 29°24' W 090°44'2 4.9
2017-Sep-13 06:29N 29°27' W 090°43'2 4.9
2017-Sep-13 06:00N 29°29' W 090°43'2 5.0
2017-Sep-13 05:30N 29°31' W 090°42'1 2.5
2017-Sep-13 04:58N 29°33' W 090°42'0 0.0
2017-Sep-13 04:28N 29°33' W 090°42'0 0.0
2017-Sep-13 03:58N 29°33' W 090°42'0 0.0
2017-Sep-13 03:28N 29°33' W 090°42'0 0.0
2017-Sep-13 02:58N 29°33' W 090°42'0 0.0
2017-Sep-13 02:28N 29°33' W 090°42'0 0.0
2017-Sep-13 01:58N 29°33' W 090°42'0 0.0
2017-Sep-13 01:28N 29°33' W 090°42'0 0.0
2017-Sep-13 00:58N 29°33' W 090°42'0 0.0
2017-Sep-13 00:28N 29°33' W 090°42'0 0.0
2017-Sep-12 23:58N 29°33' W 090°42'0 0.0
2017-Sep-12 23:28N 29°33' W 090°42'0 0.0
2017-Sep-12 22:58N 29°33' W 090°42'0 0.0
2017-Sep-12 22:28N 29°33' W 090°42'0 0.0
2017-Sep-12 21:58N 29°33' W 090°42'0 0.0
2017-Sep-12 21:28N 29°33' W 090°42'0 0.0
2017-Sep-12 20:58N 29°33' W 090°42'0 0.0
2017-Sep-12 20:04N 29°33' W 090°42'0 0.1
2017-Sep-12 19:58N 29°33' W 090°42'0 0.0
2017-Sep-12 19:28N 29°33' W 090°42'0 0.0
2017-Sep-12 18:58N 29°33' W 090°42'0 0.0
2017-Sep-12 18:28N 29°33' W 090°42'0 0.0
2017-Sep-12 17:58N 29°33' W 090°42'0 0.0
2017-Sep-12 17:28N 29°33' W 090°42'0 0.0
2017-Sep-12 16:58N 29°33' W 090°42'0 0.0
2017-Sep-12 16:28N 29°33' W 090°42'0 0.0
2017-Sep-12 15:58N 29°33' W 090°42'0 0.0
2017-Sep-12 15:25N 29°33' W 090°42'0 0.0
2017-Sep-12 14:58N 29°33' W 090°42'0 0.0
2017-Sep-12 14:28N 29°33' W 090°42'0 0.0
2017-Sep-12 13:58N 29°33' W 090°42'0 0.0
2017-Sep-12 13:28N 29°33' W 090°42'0 0.0
2017-Sep-12 12:58N 29°33' W 090°42'0 0.0
2017-Sep-12 09:13N 29°33' W 090°42'0 0.0
2017-Sep-12 08:58N 29°33' W 090°42'0 0.0
2017-Sep-12 08:28N 29°33' W 090°42'0 0.0
2017-Sep-12 07:58N 29°33' W 090°42'0 0.0
2017-Sep-12 07:28N 29°33' W 090°42'0 0.0
2017-Sep-12 06:58N 29°33' W 090°42'0 0.0
2017-Sep-12 06:28N 29°33' W 090°42'0 0.0
2017-Sep-12 05:58N 29°33' W 090°42'0 0.0
2017-Sep-12 05:28N 29°33' W 090°42'0 0.0
2017-Sep-12 04:58N 29°33' W 090°42'0 0.0
2017-Sep-12 04:28N 29°33' W 090°42'0 0.0
2017-Sep-12 03:58N 29°33' W 090°42'0 0.0
2017-Sep-12 03:28N 29°33' W 090°42'0 0.0
2017-Sep-12 02:58N 29°33' W 090°42'0 0.0
2017-Sep-12 02:28N 29°33' W 090°42'0 0.0
2017-Sep-12 01:58N 29°33' W 090°42'0 0.0
2017-Sep-12 01:28N 29°33' W 090°42'0 0.0
2017-Sep-12 01:01N 29°33' W 090°42'0 0.0
2017-Sep-12 00:28N 29°33' W 090°42'0 0.0
2017-Sep-11 23:58N 29°33' W 090°42'0 0.0
2017-Sep-11 23:31N 29°33' W 090°42'0 0.0
2017-Sep-11 23:01N 29°33' W 090°42'0 0.0
2017-Sep-11 22:31N 29°33' W 090°42'0 0.0
2017-Sep-11 22:01N 29°33' W 090°42'0 0.0
2017-Sep-11 21:31N 29°33' W 090°42'0 0.0
2017-Sep-11 21:01N 29°33' W 090°42'0 0.0
2017-Sep-11 20:31N 29°33' W 090°42'0 0.0
2017-Sep-11 20:00N 29°33' W 090°42'0 0.1
2017-Sep-11 19:31N 29°33' W 090°42'0 0.1
2017-Sep-11 19:00N 29°33' W 090°42'0 0.0
2017-Sep-11 18:27N 29°33' W 090°42'0 0.0
2017-Sep-11 18:00N 29°33' W 090°42'0 0.0
2017-Sep-11 17:27N 29°33' W 090°42'0 0.0
2017-Sep-11 16:54N 29°33' W 090°42'0 0.0
2017-Sep-11 16:30N 29°33' W 090°42'0 0.0
2017-Sep-11 15:57N 29°33' W 090°42'0 0.0
2017-Sep-11 15:30N 29°33' W 090°42'0 0.0
2017-Sep-11 15:00N 29°33' W 090°42'0 0.0
2017-Sep-11 14:30N 29°33' W 090°42'0 0.0
2017-Sep-11 14:00N 29°33' W 090°42'0 0.1
2017-Sep-11 13:24N 29°33' W 090°42'0 0.1
2017-Sep-11 13:00N 29°33' W 090°42'0 0.0
2017-Sep-11 12:30N 29°33' W 090°42'0 0.0
2017-Sep-11 12:00N 29°33' W 090°42'0 0.0
2017-Sep-11 11:30N 29°33' W 090°42'0 0.0
2017-Sep-11 11:00N 29°33' W 090°42'0 0.0
2017-Sep-11 10:30N 29°33' W 090°42'0 0.0
2017-Sep-11 10:00N 29°33' W 090°42'0 0.0
2017-Sep-11 09:30N 29°33' W 090°42'0 0.0
2017-Sep-11 09:00N 29°33' W 090°42'0 0.0
2017-Sep-11 08:30N 29°33' W 090°42'0 0.0
2017-Sep-11 08:00N 29°33' W 090°42'0 0.0
2017-Sep-11 07:30N 29°33' W 090°42'0 0.0
2017-Sep-11 07:00N 29°33' W 090°42'0 0.0
2017-Sep-11 06:30N 29°33' W 090°42'0 0.0
2017-Sep-11 06:00N 29°33' W 090°42'0 0.0
2017-Sep-11 05:30N 29°33' W 090°42'0 0.0
2017-Sep-11 05:00N 29°33' W 090°42'0 0.0
2017-Sep-11 04:30N 29°33' W 090°42'0 0.0
2017-Sep-11 04:00N 29°33' W 090°42'0 0.0
2017-Sep-11 03:30N 29°33' W 090°42'0 0.0
2017-Sep-11 03:00N 29°33' W 090°42'0 0.0
2017-Sep-11 02:30N 29°33' W 090°42'0 0.0
2017-Sep-11 02:00N 29°33' W 090°42'0 0.0
2017-Sep-11 01:30N 29°33' W 090°42'0 0.0
2017-Sep-11 01:00N 29°33' W 090°42'0 0.0
2017-Sep-11 00:30N 29°33' W 090°42'0 0.0
2017-Sep-11 00:00N 29°33' W 090°42'0 0.0
2017-Sep-10 23:30N 29°33' W 090°42'0 0.0
2017-Sep-10 23:00N 29°33' W 090°42'0 0.0
2017-Sep-10 22:30N 29°33' W 090°42'0 0.0
2017-Sep-10 22:00N 29°33' W 090°42'0 0.0
2017-Sep-10 21:30N 29°33' W 090°42'0 0.0
2017-Sep-10 21:00N 29°33' W 090°42'0 0.0
2017-Sep-10 20:30N 29°33' W 090°42'0 0.0
2017-Sep-10 20:00N 29°33' W 090°42'0 0.0
2017-Sep-10 19:30N 29°33' W 090°42'0 0.0
2017-Sep-10 19:00N 29°33' W 090°42'0 0.0
2017-Sep-10 18:30N 29°33' W 090°42'0 0.0
2017-Sep-10 18:00N 29°33' W 090°42'0 0.0
2017-Sep-10 17:30N 29°33' W 090°42'0 0.0
2017-Sep-10 17:00N 29°33' W 090°42'0 0.0
2017-Sep-10 16:30N 29°33' W 090°42'0 0.0
2017-Sep-10 16:00N 29°33' W 090°42'0 0.0
2017-Sep-10 15:30N 29°33' W 090°42'0 0.0
2017-Sep-10 15:00N 29°33' W 090°42'0 0.0
2017-Sep-10 14:00N 29°33' W 090°42'0 0.0
2017-Sep-10 13:30N 29°33' W 090°42'0 0.0
2017-Sep-10 13:00N 29°33' W 090°42'0 0.0
2017-Sep-10 12:30N 29°33' W 090°42'0 0.0
2017-Sep-10 12:00N 29°33' W 090°42'0 0.0
2017-Sep-10 11:30N 29°33' W 090°42'0 0.0
2017-Sep-10 11:00N 29°33' W 090°42'0 0.0
2017-Sep-10 10:30N 29°33' W 090°42'0 0.0
2017-Sep-10 10:00N 29°33' W 090°42'0 0.0
2017-Sep-10 09:30N 29°33' W 090°42'0 0.0
2017-Sep-10 09:00N 29°33' W 090°42'0 0.0
2017-Sep-10 08:30N 29°33' W 090°42'0 0.0
2017-Sep-10 08:00N 29°33' W 090°42'0 0.0
2017-Sep-10 07:30N 29°33' W 090°42'0 0.0
2017-Sep-10 07:00N 29°33' W 090°42'0 0.0
2017-Sep-10 06:30N 29°33' W 090°42'0 0.0
2017-Sep-10 06:00N 29°33' W 090°42'0 0.0
2017-Sep-10 05:30N 29°33' W 090°42'0 0.0
2017-Sep-10 05:00N 29°33' W 090°42'0 0.0
2017-Sep-10 04:30N 29°33' W 090°42'0 0.0
2017-Sep-10 04:00N 29°33' W 090°42'0 0.0
2017-Sep-10 03:30N 29°33' W 090°42'0 0.0
2017-Sep-10 03:00N 29°33' W 090°42'0 0.0
2017-Sep-10 02:30N 29°33' W 090°42'0 0.0
2017-Sep-10 02:00N 29°33' W 090°42'0 0.0
2017-Sep-10 01:30N 29°33' W 090°42'0 0.0
2017-Sep-10 00:57N 29°33' W 090°42'0 0.0
2017-Sep-10 00:30N 29°33' W 090°42'0 0.0
2017-Sep-10 00:00N 29°33' W 090°42'0 0.0
2017-Sep-09 23:30N 29°33' W 090°42'0 0.0
2017-Sep-09 23:00N 29°33' W 090°42'0 0.0
2017-Sep-09 22:30N 29°33' W 090°42'0 0.0
2017-Sep-09 22:00N 29°33' W 090°42'0 0.0
2017-Sep-09 21:30N 29°33' W 090°42'0 0.0
2017-Sep-09 20:57N 29°33' W 090°42'0 0.0
2017-Sep-09 20:27N 29°33' W 090°42'0 0.0
2017-Sep-09 20:00N 29°33' W 090°42'0 0.0
2017-Sep-09 19:30N 29°33' W 090°42'0 0.0
2017-Sep-09 19:00N 29°33' W 090°42'0 0.0
2017-Sep-09 18:30N 29°33' W 090°42'0 0.0
2017-Sep-09 18:00N 29°33' W 090°42'0 0.0
2017-Sep-09 17:30N 29°33' W 090°42'0 0.0
2017-Sep-09 17:00N 29°33' W 090°42'0 0.0
2017-Sep-09 16:30N 29°33' W 090°42'0 0.0
2017-Sep-09 16:00N 29°33' W 090°42'0 0.0
2017-Sep-09 15:30N 29°33' W 090°42'0 0.0
2017-Sep-09 15:00N 29°33' W 090°42'0 0.0
2017-Sep-09 14:30N 29°33' W 090°42'0 0.0
2017-Sep-09 14:00N 29°33' W 090°42'0 0.0
2017-Sep-09 13:30N 29°33' W 090°42'0 0.0
2017-Sep-09 13:00N 29°33' W 090°42'0 0.0
2017-Sep-09 12:30N 29°33' W 090°42'0 0.0
2017-Sep-09 12:00N 29°33' W 090°42'0 0.0
2017-Sep-09 11:30N 29°33' W 090°42'  

Dump ship's entire track history